Time;durP1;ratioP1;P1;durP2;ratioP2;P2;SDS_P1;SDS_P2;PMS_P1;PMS_P2;Temp;Humidity;BMP_temperature;BMP_pressure;BME280_temperature;BME280_humidity;BME280_pressure;Samples;Min_cycle;Max_cycle;Signal;HPM_P1;HPM_P2
2022/01/21 00:01:26;;;;;;;3.70;1.77;;;-1.30;99.90;;;;;;5070449;28;20024;-78
2022/01/21 00:03:53;;;;;;;4.88;2.20;;;-1.30;99.90;;;;;;5078938;28;20028;-78
2022/01/21 00:06:19;;;;;;;5.00;2.15;;;-1.30;99.90;;;;;;5096711;28;20062;-78
2022/01/21 00:08:46;;;;;;;3.88;2.20;;;-1.30;99.90;;;;;;5097207;28;20028;-78
2022/01/21 00:11:14;;;;;;;3.80;2.08;;;-1.20;99.90;;;;;;5077979;28;20028;-77
2022/01/21 00:13:40;;;;;;;3.25;1.67;;;-1.20;99.90;;;;;;5093246;28;20024;-78
2022/01/21 00:16:15;;;;;;;5.35;2.20;;;-1.20;99.90;;;;;;5096566;28;20391;-77
2022/01/21 00:18:51;;;;;;;5.20;2.03;;;-1.30;99.90;;;;;;5077799;28;20115;-78
2022/01/21 00:32:13;;;;;;;5.45;2.45;;;-1.30;99.90;;;;;;5097044;28;20514;-78
2022/01/21 00:34:38;;;;;;;3.95;2.20;;;-1.30;99.90;;;;;;5077070;28;20068;-78
2022/01/21 00:37:04;;;;;;;4.75;2.40;;;-1.40;99.90;;;;;;5085144;28;20074;-78
2022/01/21 00:39:32;;;;;;;6.60;2.22;;;-1.30;99.90;;;;;;5096491;28;20024;-78
2022/01/21 00:42:12;;;;;;;5.10;2.40;;;-1.40;99.90;;;;;;5079745;28;20020;-78
2022/01/21 00:44:37;;;;;;;4.13;2.20;;;-1.40;99.90;;;;;;5063752;28;20021;-78
2022/01/21 00:47:04;;;;;;;8.73;2.70;;;-1.40;99.90;;;;;;5085467;28;20072;-78
2022/01/21 00:49:30;;;;;;;6.95;2.90;;;-1.50;99.90;;;;;;5091040;28;20035;-78
2022/01/21 00:51:55;;;;;;;4.13;2.03;;;-1.50;99.90;;;;;;5078041;28;20031;-78
2022/01/21 00:54:21;;;;;;;6.45;2.30;;;-1.50;99.90;;;;;;5096432;28;20058;-78
2022/01/21 00:56:47;;;;;;;2.90;1.60;;;-1.50;99.90;;;;;;5095633;28;20027;-78
2022/01/21 00:59:12;;;;;;;4.82;1.92;;;-1.50;99.90;;;;;;5071157;28;20373;-78
2022/01/21 01:01:38;;;;;;;5.32;2.15;;;-1.50;99.90;;;;;;5096027;28;20036;-78
2022/01/21 01:04:04;;;;;;;7.18;2.22;;;-1.50;99.90;;;;;;5095484;28;20028;-78
2022/01/21 01:06:31;;;;;;;7.22;2.33;;;-1.50;99.90;;;;;;5095476;28;20091;-78
2022/01/21 01:08:57;;;;;;;4.03;1.80;;;-1.40;99.90;;;;;;5077230;28;20479;-78
2022/01/21 01:22:07;;;;;;;4.90;2.00;;;-1.40;99.90;;;;;;5095427;28;20112;-78
2022/01/21 01:29:59;;;;;;;5.05;2.17;;;-1.40;99.90;;;;;;5080095;28;20079;-78
2022/01/21 01:32:27;;;;;;;5.28;2.30;;;-1.40;99.90;;;;;;5087637;28;20131;-78
2022/01/21 01:34:53;;;;;;;5.22;1.92;;;-1.40;99.90;;;;;;5077183;28;20032;-78
2022/01/21 01:37:59;;;;;;;3.60;1.85;;;-1.50;99.90;;;;;;5072941;28;20060;-78
2022/01/21 01:43:02;;;;;;;9.05;2.22;;;-1.40;99.90;;;;;;5095475;28;20426;-78
2022/01/21 01:51:00;;;;;;;3.30;1.90;;;-1.50;99.90;;;;;;5075675;28;20031;-78
2022/01/21 01:53:51;;;;;;;4.60;2.17;;;-1.40;99.90;;;;;;5077076;28;20032;-78
2022/01/21 01:56:20;;;;;;;6.22;1.98;;;-1.40;99.90;;;;;;5094482;28;20032;-78
2022/01/21 01:58:46;;;;;;;5.03;2.13;;;-1.40;99.90;;;;;;5089831;28;20021;-78
2022/01/21 02:01:12;;;;;;;3.47;1.77;;;-1.40;99.90;;;;;;5083442;28;20020;-78
2022/01/21 02:03:38;;;;;;;4.97;2.47;;;-1.40;99.90;;;;;;5076527;28;20028;-78
2022/01/21 02:06:04;;;;;;;3.83;1.98;;;-1.40;99.90;;;;;;5074352;28;20476;-77
2022/01/21 02:08:31;;;;;;;3.72;1.70;;;-1.50;99.90;;;;;;5077958;28;20111;-77
2022/01/21 02:10:57;;;;;;;4.25;1.65;;;-1.50;99.90;;;;;;5094823;28;20031;-78
2022/01/21 02:13:26;;;;;;;6.00;2.30;;;-1.50;99.90;;;;;;5094586;28;20024;-78
2022/01/21 02:16:10;;;;;;;4.00;1.95;;;-1.50;99.90;;;;;;5094566;28;20019;-78
2022/01/21 02:23:54;;;;;;;4.38;2.20;;;-1.60;99.90;;;;;;5093889;28;20028;-78
2022/01/21 02:26:20;;;;;;;4.07;1.98;;;-1.60;99.90;;;;;;5094617;28;20016;-78
2022/01/21 02:28:46;;;;;;;4.18;1.80;;;-1.60;99.90;;;;;;5092899;28;20109;-78
2022/01/21 02:31:12;;;;;;;3.42;1.80;;;-1.50;99.90;;;;;;5094480;28;20094;-78
2022/01/21 02:33:38;;;;;;;6.78;2.70;;;-1.60;99.90;;;;;;5094732;28;20032;-78
2022/01/21 02:36:04;;;;;;;6.22;2.15;;;-1.60;99.90;;;;;;5076809;28;20468;-77
2022/01/21 02:38:30;;;;;;;4.93;2.20;;;-1.60;99.90;;;;;;5075066;28;20473;-78
2022/01/21 02:40:55;;;;;;;3.15;1.52;;;-1.60;99.90;;;;;;5077809;28;20486;-78
2022/01/21 02:43:22;;;;;;;2.97;1.55;;;-1.60;99.90;;;;;;5094310;28;20024;-78
2022/01/21 02:45:48;;;;;;;6.65;2.20;;;-1.60;99.90;;;;;;5076330;28;20024;-78
2022/01/21 02:48:14;;;;;;;4.68;2.17;;;-1.60;99.90;;;;;;5093819;28;20027;-78
2022/01/21 02:50:40;;;;;;;4.25;1.60;;;-1.60;99.90;;;;;;5093826;28;20081;-77
2022/01/21 02:53:26;;;;;;;5.65;2.00;;;-1.60;99.90;;;;;;5094053;28;20032;-78
2022/01/21 02:55:52;;;;;;;7.15;1.70;;;-1.50;99.90;;;;;;5094053;28;20035;-78
2022/01/21 02:58:17;;;;;;;3.53;1.88;;;-1.50;99.90;;;;;;5074990;28;20024;-77
2022/01/21 03:00:44;;;;;;;3.90;1.45;;;-1.60;99.90;;;;;;5075758;28;20028;-78
2022/01/21 03:03:10;;;;;;;3.95;1.67;;;-1.60;99.90;;;;;;5093841;28;20017;-78
2022/01/21 03:05:38;;;;;;;4.50;1.90;;;-1.60;99.90;;;;;;5076262;28;20036;-78
2022/01/21 03:08:07;;;;;;;4.28;1.73;;;-1.60;99.90;;;;;;5092190;28;20590;-78
2022/01/21 03:10:33;;;;;;;7.72;3.22;;;-1.60;99.90;;;;;;5085701;28;20554;-78
2022/01/21 03:12:59;;;;;;;7.03;2.63;;;-1.60;99.90;;;;;;5094030;28;20055;-78
2022/01/21 03:15:24;;;;;;;8.60;2.08;;;-1.70;99.90;;;;;;5094720;28;20051;-78
2022/01/21 03:17:50;;;;;;;5.03;2.00;;;-1.70;99.90;;;;;;5093780;28;20113;-78
2022/01/21 03:20:16;;;;;;;5.20;2.17;;;-1.70;99.90;;;;;;5093966;28;20031;-78
2022/01/21 03:22:42;;;;;;;7.57;1.92;;;-1.60;99.90;;;;;;5094024;28;20111;-78
2022/01/21 03:25:08;;;;;;;4.60;1.40;;;-1.70;99.90;;;;;;5093951;28;20020;-78
2022/01/21 03:27:35;;;;;;;2.67;1.33;;;-1.70;99.90;;;;;;5094326;28;20040;-78
2022/01/21 03:30:03;;;;;;;5.60;1.08;;;-1.70;99.90;;;;;;5058073;28;20029;-78
2022/01/21 03:32:28;;;;;;;2.78;1.10;;;-1.70;99.90;;;;;;5087301;28;20032;-78
2022/01/21 03:34:54;;;;;;;7.30;1.33;;;-1.70;99.90;;;;;;5077399;28;20024;-77
2022/01/21 03:37:20;;;;;;;5.97;1.50;;;-1.80;99.90;;;;;;5091291;28;20103;-78
2022/01/21 03:39:46;;;;;;;6.65;1.63;;;-1.80;99.90;;;;;;5082981;28;20040;-78
2022/01/21 03:42:11;;;;;;;2.05;1.08;;;-1.90;99.90;;;;;;5088030;28;20437;-78
2022/01/21 03:44:38;;;;;;;4.50;1.30;;;-1.90;99.90;;;;;;5098119;28;20028;-78
2022/01/21 03:47:04;;;;;;;2.45;1.45;;;-1.90;99.90;;;;;;5079325;28;20376;-78
2022/01/21 03:49:36;;;;;;;3.08;1.52;;;-1.90;99.90;;;;;;5097057;28;20032;-78
2022/01/21 03:52:03;;;;;;;7.55;2.75;;;-1.90;99.90;;;;;;5097650;28;20035;-78
2022/01/21 03:54:29;;;;;;;4.53;1.55;;;-1.90;99.90;;;;;;5097730;28;20032;-78
2022/01/21 03:56:55;;;;;;;3.53;1.65;;;-1.90;99.90;;;;;;5097699;28;20032;-78
2022/01/21 03:59:20;;;;;;;10.27;1.80;;;-1.80;99.90;;;;;;5078533;28;20031;-78
2022/01/21 04:01:46;;;;;;;5.65;2.45;;;-1.80;99.90;;;;;;5097171;28;20467;-78
2022/01/21 04:04:12;;;;;;;4.10;1.52;;;-1.80;99.90;;;;;;5096966;28;20020;-78
2022/01/21 04:06:37;;;;;;;3.47;1.80;;;-1.80;99.90;;;;;;5096316;28;20031;-78
2022/01/21 04:09:04;;;;;;;5.18;1.77;;;-1.80;99.90;;;;;;5078859;28;20063;-78
2022/01/21 04:11:29;;;;;;;3.60;1.77;;;-1.80;99.90;;;;;;5097483;28;20025;-78
2022/01/21 04:13:55;;;;;;;4.82;1.80;;;-1.80;99.90;;;;;;5096698;28;20046;-78
2022/01/21 04:16:21;;;;;;;6.00;1.85;;;-1.80;99.90;;;;;;5092850;28;20020;-77
2022/01/21 04:18:47;;;;;;;6.13;1.92;;;-1.90;99.90;;;;;;5096752;28;20039;-78
2022/01/21 04:21:13;;;;;;;7.78;1.60;;;-1.90;99.90;;;;;;5096312;28;20363;-78
2022/01/21 04:23:39;;;;;;;3.03;1.55;;;-1.90;99.90;;;;;;5096948;28;20523;-78
2022/01/21 04:26:05;;;;;;;5.53;1.75;;;-1.90;99.90;;;;;;5077836;28;20068;-78
2022/01/21 04:28:30;;;;;;;5.20;1.23;;;-1.90;99.90;;;;;;5096541;28;20115;-77
2022/01/21 04:30:57;;;;;;;3.90;1.10;;;-2.00;99.90;;;;;;5096387;28;20092;-78
2022/01/21 04:33:23;;;;;;;3.63;1.30;;;-2.00;99.90;;;;;;5096935;28;20017;-78
2022/01/21 04:35:49;;;;;;;4.15;1.40;;;-2.00;99.90;;;;;;5093602;28;20145;-78
2022/01/21 04:38:18;;;;;;;2.47;1.10;;;-2.00;99.90;;;;;;5093493;28;20052;-78
2022/01/21 04:40:54;;;;;;;5.10;1.50;;;-2.00;99.90;;;;;;5096013;28;20107;-77
2022/01/21 04:48:48;;;;;;;6.15;3.55;;;-1.80;99.90;;;;;;5092021;28;20050;-78
2022/01/21 04:51:25;;;;;;;5.63;3.08;;;-1.80;99.90;;;;;;5091755;28;20032;-78
2022/01/21 04:53:50;;;;;;;4.63;2.47;;;-1.90;99.90;;;;;;5095866;28;20077;-78
2022/01/21 04:56:17;;;;;;;5.47;2.00;;;-1.90;99.90;;;;;;5095507;28;20063;-78
2022/01/21 04:58:44;;;;;;;4.07;1.75;;;-1.90;99.90;;;;;;5077659;28;20118;-78
2022/01/21 05:01:11;;;;;;;6.05;2.28;;;-1.90;99.90;;;;;;5095654;28;20016;-78
2022/01/21 05:03:39;;;;;;;5.30;2.38;;;-1.90;99.90;;;;;;5095915;28;20052;-78
2022/01/21 05:06:05;;;;;;;4.85;1.50;;;-1.90;99.90;;;;;;5094438;28;20016;-77
2022/01/21 05:08:43;;;;;;;8.35;2.22;;;-1.80;99.90;;;;;;5090879;28;20494;-78
2022/01/21 05:11:10;;;;;;;2.92;1.58;;;-1.80;99.90;;;;;;5095672;28;20073;-77
2022/01/21 05:13:40;;;;;;;2.92;1.85;;;-1.80;99.90;;;;;;5094932;28;20034;-78
2022/01/21 05:16:51;;;;;;;6.85;2.53;;;-1.80;99.90;;;;;;5093232;28;20060;-78
2022/01/21 05:18:57;;;;;;;10.10;3.47;;;-1.80;99.90;;;;;;5069258;28;20037;-77
2022/01/21 05:21:23;;;;;;;6.78;3.08;;;-1.80;99.90;;;;;;5074843;28;20021;-78
2022/01/21 05:23:48;;;;;;;6.35;3.33;;;-1.80;99.90;;;;;;5075238;28;20046;-78
2022/01/21 05:26:14;;;;;;;5.40;2.80;;;-1.80;99.90;;;;;;5075242;28;20099;-78
2022/01/21 05:28:40;;;;;;;6.15;2.80;;;-1.90;99.90;;;;;;5057517;28;20036;-78
2022/01/21 05:31:06;;;;;;;8.82;2.97;;;-1.90;99.90;;;;;;5057821;28;20035;-78
2022/01/21 05:33:31;;;;;;;6.97;2.92;;;-1.90;99.90;;;;;;5075539;28;20025;-78
2022/01/21 05:35:57;;;;;;;11.32;3.53;;;-1.90;99.90;;;;;;5075303;28;20472;-78
2022/01/21 05:38:23;;;;;;;5.65;2.60;;;-1.90;99.90;;;;;;5057333;28;20025;-78
2022/01/21 05:40:50;;;;;;;6.57;2.50;;;-2.00;99.90;;;;;;5075494;28;20484;-78
2022/01/21 05:43:16;;;;;;;7.55;3.10;;;-2.00;99.90;;;;;;5057499;28;20035;-78
2022/01/21 05:48:26;;;;;;;8.38;3.78;;;-2.00;99.90;;;;;;5075019;28;20043;-78
2022/01/21 05:50:51;;;;;;;7.43;3.13;;;-2.00;99.90;;;;;;5075535;28;20028;-78
2022/01/21 05:53:17;;;;;;;10.15;3.50;;;-1.90;99.90;;;;;;5075631;28;20028;-78
2022/01/21 05:55:43;;;;;;;10.20;3.70;;;-2.00;99.90;;;;;;5057329;28;20395;-78
2022/01/21 05:58:12;;;;;;;6.95;3.33;;;-2.00;99.90;;;;;;5056775;28;20431;-78
2022/01/21 06:00:38;;;;;;;6.40;3.15;;;-2.00;99.90;;;;;;5075768;28;20023;-78
2022/01/21 06:03:05;;;;;;;7.80;3.42;;;-2.00;99.90;;;;;;5075219;28;20473;-78
2022/01/21 06:05:33;;;;;;;9.98;3.90;;;-2.00;99.90;;;;;;5075325;28;20427;-78
2022/01/21 06:08:04;;;;;;;5.60;2.70;;;-1.90;99.90;;;;;;5057268;28;20365;-78
2022/01/21 06:10:31;;;;;;;7.40;3.53;;;-1.90;99.90;;;;;;5074747;28;20499;-78
2022/01/21 06:12:57;;;;;;;11.38;5.97;;;-1.90;99.90;;;;;;5074785;28;20034;-78
2022/01/21 06:15:25;;;;;;;8.30;4.22;;;-2.00;99.90;;;;;;5075010;28;20028;-78
2022/01/21 06:17:51;;;;;;;9.52;4.55;;;-2.10;99.90;;;;;;5074929;28;20032;-78
2022/01/21 06:20:17;;;;;;;10.35;4.25;;;-2.10;99.90;;;;;;5074919;28;20392;-78
2022/01/21 06:22:43;;;;;;;8.45;4.18;;;-2.10;99.90;;;;;;5074649;28;20028;-78
2022/01/21 06:25:09;;;;;;;10.60;4.35;;;-2.00;99.90;;;;;;5074826;28;20020;-78
2022/01/21 06:27:36;;;;;;;9.95;4.57;;;-2.00;99.90;;;;;;5074802;28;20116;-78
2022/01/21 06:30:03;;;;;;;11.50;5.38;;;-2.00;99.90;;;;;;5074734;28;20028;-78
2022/01/21 06:32:29;;;;;;;12.75;4.47;;;-2.00;99.90;;;;;;5074770;28;20025;-78
2022/01/21 06:34:55;;;;;;;9.30;3.90;;;-2.00;99.90;;;;;;5074818;28;20024;-78
2022/01/21 06:37:20;;;;;;;7.25;3.20;;;-2.10;99.90;;;;;;5084893;28;20024;-78
2022/01/21 06:39:46;;;;;;;8.07;3.20;;;-2.10;99.90;;;;;;5095046;28;20108;-78
2022/01/21 06:42:12;;;;;;;5.75;3.30;;;-2.10;99.90;;;;;;5095029;28;20024;-78
2022/01/21 06:44:38;;;;;;;7.32;2.75;;;-2.10;99.90;;;;;;5094437;28;20020;-78
2022/01/21 06:47:04;;;;;;;9.45;2.88;;;-2.10;99.90;;;;;;5095076;28;20036;-78
2022/01/21 06:49:29;;;;;;;5.22;2.88;;;-2.10;99.90;;;;;;5094599;28;20032;-78
2022/01/21 06:51:55;;;;;;;10.40;5.43;;;-2.20;99.90;;;;;;5094482;28;20093;-78
2022/01/21 06:54:21;;;;;;;8.57;4.15;;;-2.20;99.90;;;;;;5094562;28;20056;-78
2022/01/21 06:56:46;;;;;;;9.20;4.15;;;-2.30;99.90;;;;;;5094594;28;20024;-78
2022/01/21 06:59:12;;;;;;;7.25;3.40;;;-2.30;99.90;;;;;;5095046;28;20380;-78
2022/01/21 07:01:38;;;;;;;8.50;3.80;;;-2.20;99.90;;;;;;5094544;28;20027;-78
2022/01/21 07:04:04;;;;;;;5.13;3.22;;;-2.20;99.90;;;;;;5094469;28;20032;-78
2022/01/21 07:06:29;;;;;;;6.10;2.15;;;-2.20;99.90;;;;;;5094399;28;20023;-78
2022/01/21 07:08:55;;;;;;;7.28;2.40;;;-2.10;99.90;;;;;;5094628;28;20365;-78
2022/01/21 07:11:21;;;;;;;7.40;2.08;;;-2.10;99.90;;;;;;5080666;28;20027;-78
2022/01/21 07:13:47;;;;;;;6.18;1.60;;;-2.10;99.90;;;;;;5098836;28;20112;-78
2022/01/21 07:16:12;;;;;;;4.18;1.70;;;-2.10;99.90;;;;;;5098453;28;20027;-78
2022/01/21 07:18:38;;;;;;;5.05;1.80;;;-2.10;99.90;;;;;;5098605;28;20032;-78
2022/01/21 07:21:04;;;;;;;5.47;2.08;;;-2.00;99.90;;;;;;5081157;28;20020;-78
2022/01/21 07:23:30;;;;;;;4.75;1.85;;;-2.00;99.90;;;;;;5080775;28;20115;-78
2022/01/21 07:25:55;;;;;;;5.00;2.50;;;-2.00;99.90;;;;;;5098830;28;20448;-78
2022/01/21 07:28:21;;;;;;;5.25;2.40;;;-2.00;99.90;;;;;;5080198;28;20069;-78
2022/01/21 07:30:47;;;;;;;5.32;2.22;;;-2.00;99.90;;;;;;5098539;28;20020;-78
2022/01/21 07:33:13;;;;;;;5.20;2.30;;;-2.00;99.90;;;;;;5098779;28;20106;-78
2022/01/21 07:35:39;;;;;;;4.05;2.05;;;-2.00;99.90;;;;;;5098616;28;20020;-78
2022/01/21 07:38:05;;;;;;;4.28;2.00;;;-2.00;99.90;;;;;;5064133;28;20021;-78
2022/01/21 07:40:31;;;;;;;6.25;2.58;;;-1.90;99.90;;;;;;5078123;28;20065;-78
2022/01/21 07:42:57;;;;;;;5.07;2.15;;;-1.90;99.90;;;;;;5077957;28;20473;-78
2022/01/21 07:45:23;;;;;;;6.65;2.15;;;-1.90;99.90;;;;;;5077991;28;20019;-78
2022/01/21 07:47:48;;;;;;;5.53;2.20;;;-1.90;99.90;;;;;;5077773;28;20094;-78
2022/01/21 07:50:14;;;;;;;5.72;2.30;;;-1.90;99.90;;;;;;5078080;28;20059;-78
2022/01/21 07:52:40;;;;;;;4.38;2.20;;;-1.90;99.90;;;;;;5078106;28;20103;-78
2022/01/21 07:55:06;;;;;;;7.28;2.50;;;-1.90;99.90;;;;;;5077962;28;20024;-78
2022/01/21 07:57:31;;;;;;;3.67;2.22;;;-1.90;99.90;;;;;;5078232;28;20029;-78
2022/01/21 07:59:57;;;;;;;7.95;2.90;;;-1.90;99.90;;;;;;5078380;28;20027;-78
2022/01/21 08:02:25;;;;;;;5.70;2.70;;;-1.90;99.90;;;;;;5097451;28;20028;-78
2022/01/21 08:04:50;;;;;;;7.05;2.38;;;-1.90;99.90;;;;;;5096496;28;20112;-78
2022/01/21 08:07:16;;;;;;;8.10;2.88;;;-1.90;99.90;;;;;;5082193;28;20055;-78
2022/01/21 08:09:42;;;;;;;7.85;2.20;;;-1.90;99.90;;;;;;5089600;28;20027;-78
2022/01/21 08:12:08;;;;;;;6.40;1.92;;;-1.90;99.90;;;;;;5078129;28;20024;-78
2022/01/21 08:14:34;;;;;;;7.70;1.85;;;-2.00;99.90;;;;;;5079222;28;20020;-78
2022/01/21 08:17:02;;;;;;;4.75;1.90;;;-1.90;99.90;;;;;;5096907;28;20042;-79
2022/01/21 08:19:27;;;;;;;9.98;3.47;;;-1.90;99.90;;;;;;5090952;28;20028;-79
2022/01/21 08:21:53;;;;;;;5.50;1.73;;;-1.90;99.90;;;;;;5095753;28;20407;-78
2022/01/21 08:24:19;;;;;;;6.22;1.60;;;-1.90;99.90;;;;;;5096484;28;20022;-78
2022/01/21 08:26:44;;;;;;;5.18;1.50;;;-1.90;99.90;;;;;;5097387;28;20047;-78
2022/01/21 08:29:10;;;;;;;3.58;1.50;;;-2.00;99.90;;;;;;5079422;28;20028;-79
2022/01/21 08:31:37;;;;;;;5.72;1.58;;;-2.00;99.90;;;;;;5097162;28;20030;-78
2022/01/21 08:34:03;;;;;;;17.05;7.25;;;-2.00;99.90;;;;;;5096357;28;20032;-78
2022/01/21 08:36:29;;;;;;;12.50;4.78;;;-2.00;99.90;;;;;;5078148;28;20021;-78
2022/01/21 08:38:55;;;;;;;10.77;3.65;;;-2.00;99.90;;;;;;5081171;28;20063;-78
2022/01/21 08:41:21;;;;;;;6.75;2.65;;;-1.90;99.90;;;;;;5095395;28;20020;-78
2022/01/21 08:43:47;;;;;;;3.63;1.67;;;-1.80;99.90;;;;;;5096278;28;20024;-78
2022/01/21 08:46:13;;;;;;;3.47;2.05;;;-1.80;99.90;;;;;;5082124;28;20376;-78
2022/01/21 08:48:39;;;;;;;4.22;1.80;;;-1.70;99.90;;;;;;5094952;28;20024;-78
2022/01/21 08:51:09;;;;;;;4.55;1.70;;;-1.70;99.90;;;;;;5096451;28;20031;-78
2022/01/21 08:53:36;;;;;;;4.75;1.50;;;-1.70;99.90;;;;;;5096886;28;20028;-78
2022/01/21 08:56:05;;;;;;;38.95;17.33;;;-1.60;99.90;;;;;;5096580;28;20032;-78
2022/01/21 08:58:31;;;;;;;14.68;5.20;;;-1.60;99.90;;;;;;5096832;28;20031;-78
2022/01/21 09:00:57;;;;;;;12.10;5.68;;;-1.70;99.90;;;;;;5096662;28;20016;-79
2022/01/21 09:03:23;;;;;;;10.75;4.13;;;-1.70;99.90;;;;;;5095908;28;20476;-78
2022/01/21 09:05:50;;;;;;;8.13;3.10;;;-1.60;99.90;;;;;;5095618;28;20031;-78
2022/01/21 09:08:17;;;;;;;3.85;1.73;;;-1.50;99.90;;;;;;5090396;28;20111;-78
2022/01/21 09:10:43;;;;;;;5.25;1.83;;;-1.30;99.90;;;;;;5096124;28;20451;-78
2022/01/21 09:13:09;;;;;;;5.32;1.88;;;-1.20;99.90;;;;;;5062086;28;20051;-78
2022/01/21 09:15:36;;;;;;;4.38;2.67;;;-1.10;99.90;;;;;;5096019;28;20024;-78
2022/01/21 09:18:05;;;;;;;4.70;2.00;;;-1.10;99.90;;;;;;5096212;28;20020;-78
2022/01/21 09:20:34;;;;;;;4.63;1.35;;;-1.10;99.90;;;;;;5096090;28;20430;-78
2022/01/21 09:23:00;;;;;;;3.58;1.90;;;-1.00;99.90;;;;;;5095152;28;20028;-78
2022/01/21 09:25:26;;;;;;;7.45;2.25;;;-0.90;99.90;;;;;;5096450;28;20369;-78
2022/01/21 09:27:52;;;;;;;6.88;2.85;;;-0.90;99.90;;;;;;5096025;28;20032;-78
2022/01/21 09:30:18;;;;;;;15.70;4.00;;;-0.90;99.90;;;;;;5094835;28;20031;-78
2022/01/21 09:32:44;;;;;;;11.68;3.85;;;-0.80;99.90;;;;;;5096446;28;20036;-78
2022/01/21 09:35:10;;;;;;;10.05;2.78;;;-0.80;99.90;;;;;;5096131;28;20073;-78
2022/01/21 09:37:37;;;;;;;5.10;1.92;;;-0.70;99.90;;;;;;5095551;28;20020;-78
2022/01/21 09:40:06;;;;;;;3.50;1.65;;;-0.70;99.90;;;;;;5095054;28;20024;-78
2022/01/21 09:42:34;;;;;;;3.47;1.50;;;-0.60;99.90;;;;;;5095782;28;20024;-78
2022/01/21 09:45:00;;;;;;;6.70;3.00;;;-0.50;99.90;;;;;;5096230;28;20379;-78
2022/01/21 09:47:31;;;;;;;5.32;2.22;;;-0.50;99.90;;;;;;5094104;28;20024;-78
2022/01/21 09:49:57;;;;;;;9.10;2.72;;;-0.60;99.90;;;;;;5094049;28;20472;-78
2022/01/21 09:52:24;;;;;;;6.68;2.03;;;-0.70;99.90;;;;;;5095122;28;20110;-78
2022/01/21 09:54:53;;;;;;;5.50;2.25;;;-0.70;99.90;;;;;;5094880;28;20028;-78
2022/01/21 09:57:22;;;;;;;3.97;1.58;;;-0.70;99.90;;;;;;5093799;28;20093;-78
2022/01/21 09:59:50;;;;;;;4.85;1.30;;;-0.60;99.90;;;;;;5093960;28;20504;-78
2022/01/21 10:02:19;;;;;;;3.95;1.25;;;-0.60;99.90;;;;;;5093716;28;20022;-78
2022/01/21 10:04:49;;;;;;;3.78;1.50;;;-0.50;99.90;;;;;;5093750;28;20391;-79
2022/01/21 10:07:18;;;;;;;4.15;1.17;;;-0.40;99.90;;;;;;5095068;28;20052;-79
2022/01/21 10:09:46;;;;;;;6.20;1.75;;;-0.40;99.90;;;;;;5095359;28;20031;-79
2022/01/21 10:12:12;;;;;;;3.63;1.17;;;-0.30;99.90;;;;;;5093765;28;20495;-79
2022/01/21 10:14:38;;;;;;;9.30;2.22;;;-0.30;99.90;;;;;;5095035;28;20443;-79
2022/01/21 10:17:05;;;;;;;3.60;1.17;;;-0.30;99.90;;;;;;5093540;28;20040;-79
2022/01/21 10:19:36;;;;;;;4.82;1.23;;;-0.30;99.90;;;;;;5093745;28;20027;-79
2022/01/21 10:22:16;;;;;;;3.53;1.50;;;-0.30;99.90;;;;;;5095416;28;20016;-78
2022/01/21 10:24:52;;;;;;;2.73;1.10;;;-0.30;99.90;;;;;;5095904;28;20024;-78
2022/01/21 10:27:26;;;;;;;5.35;1.00;;;-0.30;99.90;;;;;;5095307;28;20020;-78
2022/01/21 10:29:52;;;;;;;5.38;1.05;;;-0.30;99.90;;;;;;5094896;28;20027;-79
2022/01/21 10:32:36;;;;;;;4.13;1.10;;;-0.30;99.90;;;;;;5094966;28;20030;-78
2022/01/21 10:35:02;;;;;;;6.13;2.20;;;-0.20;99.90;;;;;;5095438;28;20028;-78
2022/01/21 10:37:35;;;;;;;8.25;2.75;;;-0.20;99.90;;;;;;5094923;28;20028;-78
2022/01/21 10:40:06;;;;;;;10.35;2.50;;;-0.20;99.90;;;;;;5093875;28;20046;-78
2022/01/21 10:42:32;;;;;;;5.60;1.30;;;-0.20;99.90;;;;;;5094911;28;20027;-78
2022/01/21 10:44:59;;;;;;;10.80;2.33;;;-0.20;99.90;;;;;;5095124;28;20028;-79
2022/01/21 10:47:30;;;;;;;8.27;2.08;;;-0.30;99.90;;;;;;5096477;28;20024;-79
2022/01/21 10:50:16;;;;;;;5.60;1.65;;;-0.30;99.90;;;;;;5093942;28;20039;-78
2022/01/21 10:52:51;;;;;;;7.22;2.58;;;-0.20;99.90;;;;;;5093290;28;20169;-78
2022/01/21 10:55:28;;;;;;;6.97;1.80;;;-0.10;99.90;;;;;;5094787;28;20481;-78
2022/01/21 10:58:12;;;;;;;13.30;2.53;;;-0.10;99.90;;;;;;5093724;28;20039;-79
2022/01/21 11:00:59;;;;;;;8.68;2.40;;;0.00;99.90;;;;;;5094048;28;20016;-79
2022/01/21 11:03:26;;;;;;;28.00;4.20;;;0.00;99.90;;;;;;5094715;28;20032;-79
2022/01/21 11:06:14;;;;;;;114.57;16.42;;;0.10;99.90;;;;;;5096072;28;20134;-79
2022/01/21 11:08:39;;;;;;;47.05;8.95;;;0.30;99.90;;;;;;5094398;28;20028;-79
2022/01/21 11:11:05;;;;;;;10.70;1.98;;;0.30;99.90;;;;;;5095975;28;20102;-79
2022/01/21 11:13:33;;;;;;;132.00;19.13;;;0.30;99.90;;;;;;5095657;28;20423;-78
2022/01/21 11:16:03;;;;;;;23.48;3.50;;;0.30;99.90;;;;;;5094711;28;20023;-79
2022/01/21 11:18:30;;;;;;;14.75;3.13;;;0.30;99.90;;;;;;5093497;28;20024;-78
2022/01/21 11:21:08;;;;;;;6.80;1.42;;;0.30;99.90;;;;;;5095391;28;20026;-79
2022/01/21 11:23:37;;;;;;;5.43;1.00;;;0.60;99.90;;;;;;5095868;28;20020;-79
2022/01/21 11:26:08;;;;;;;4.38;1.13;;;0.70;99.90;;;;;;5095163;28;20016;-79
2022/01/21 11:28:45;;;;;;;3.42;1.33;;;0.70;99.90;;;;;;5094653;28;20030;-79
2022/01/21 11:31:14;;;;;;;5.68;1.77;;;0.70;99.90;;;;;;5094545;28;20074;-79
2022/01/21 11:33:40;;;;;;;10.23;3.20;;;0.70;99.90;;;;;;5094469;28;20446;-79
2022/01/21 11:36:06;;;;;;;18.30;3.42;;;0.70;99.90;;;;;;5094632;28;20059;-79
2022/01/21 11:38:37;;;;;;;6.28;2.05;;;0.70;99.90;;;;;;5094417;28;20103;-79
2022/01/21 11:41:05;;;;;;;5.18;2.20;;;0.80;99.90;;;;;;5094501;28;20035;-79
2022/01/21 11:43:33;;;;;;;8.10;2.50;;;0.90;99.90;;;;;;5094430;28;20024;-79
2022/01/21 11:48:52;;;;;;;5.40;1.63;;;1.00;99.90;;;;;;5094768;28;20032;-79
2022/01/21 11:51:32;;;;;;;4.18;1.70;;;1.00;99.90;;;;;;5094420;28;20048;-79
2022/01/21 11:53:58;;;;;;;10.30;2.90;;;1.00;99.90;;;;;;5094926;28;20063;-79
2022/01/21 11:56:32;;;;;;;212.15;32.78;;;1.00;99.90;;;;;;5096525;28;20032;-79
2022/01/21 11:59:01;;;;;;;30.73;5.32;;;1.10;99.90;;;;;;5098274;28;20031;-78
2022/01/21 12:01:46;;;;;;;3.45;1.48;;;1.00;99.90;;;;;;5098323;28;20376;-79
2022/01/21 12:04:12;;;;;;;2.92;1.30;;;0.90;99.90;;;;;;5097546;28;20389;-78
2022/01/21 12:06:37;;;;;;;12.38;4.55;;;0.80;99.90;;;;;;5098076;28;20103;-79
2022/01/21 12:09:05;;;;;;;98.53;40.95;;;0.80;99.90;;;;;;5098023;28;20036;-79
2022/01/21 12:11:38;;;;;;;26.85;12.07;;;0.70;99.70;;;;;;5096452;28;20020;-79
2022/01/21 12:14:37;;;;;;;10.82;5.25;;;0.70;99.90;;;;;;5098097;28;20107;-78
2022/01/21 12:17:16;;;;;;;3.63;1.33;;;0.80;99.90;;;;;;5094546;28;20032;-79
2022/01/21 12:19:42;;;;;;;3.65;1.25;;;0.80;98.90;;;;;;5096494;28;20024;-79
2022/01/21 12:22:14;;;;;;;9.27;2.53;;;0.80;99.10;;;;;;5097721;28;20535;-79
2022/01/21 12:24:55;;;;;;;6.82;1.60;;;0.80;99.90;;;;;;5097746;28;20024;-79
